createdAt,value
2022-10-25T00:01:24.891Z,3.97
2022-10-25T00:03:52.903Z,6.60
2022-10-25T00:06:20.340Z,3.83
2022-10-25T00:08:47.856Z,9.27
2022-10-25T00:11:27.278Z,3.93
2022-10-25T00:13:56.631Z,4.10
2022-10-25T00:16:28.211Z,3.50
2022-10-25T00:18:55.765Z,4.00
2022-10-25T00:21:24.356Z,3.17
2022-10-25T00:23:52.654Z,7.73
2022-10-25T00:26:20.791Z,5.43
2022-10-25T00:28:48.547Z,3.97
2022-10-25T00:31:17.518Z,3.57
2022-10-25T00:33:46.086Z,3.07
2022-10-25T00:36:22.423Z,3.67
2022-10-25T00:38:52.456Z,2.90
2022-10-25T00:41:23.936Z,3.33
2022-10-25T00:43:57.077Z,6.93
2022-10-25T00:46:30.418Z,3.53
2022-10-25T00:49:06.781Z,3.13
2022-10-25T00:51:39.044Z,4.83
2022-10-25T00:54:08.608Z,5.37
2022-10-25T00:56:40.871Z,4.40
2022-10-25T00:59:10.825Z,3.93
2022-10-25T01:01:40.500Z,3.47
2022-10-25T01:04:11.515Z,2.92
2022-10-25T01:06:42.336Z,3.92
2022-10-25T01:09:12.925Z,4.15
2022-10-25T01:11:40.632Z,2.60
2022-10-25T01:14:11.111Z,3.47
2022-10-25T01:16:59.728Z,4.30
2022-10-25T01:19:52.000Z,2.47
2022-10-25T01:22:42.254Z,2.63
2022-10-25T01:25:47.035Z,3.13
2022-10-25T01:28:28.055Z,3.08
2022-10-25T01:31:24.455Z,3.80
2022-10-25T01:34:16.817Z,4.97
2022-10-25T01:37:03.600Z,4.45
2022-10-25T01:39:40.207Z,2.80
2022-10-25T01:42:12.304Z,4.30
2022-10-25T01:44:58.581Z,2.83
2022-10-25T01:47:54.575Z,4.93
2022-10-25T01:50:43.133Z,2.23
2022-10-25T01:53:10.684Z,2.97
2022-10-25T01:55:50.247Z,2.07
2022-10-25T01:58:46.025Z,5.25
2022-10-25T02:01:16.429Z,3.40
2022-10-25T02:03:54.591Z,5.00
2022-10-25T02:06:40.618Z,4.43
2022-10-25T02:09:33.182Z,5.77
2022-10-25T02:12:02.324Z,2.67
2022-10-25T02:14:36.349Z,2.60
2022-10-25T02:17:09.001Z,2.77
2022-10-25T02:19:41.430Z,4.27
2022-10-25T02:22:10.658Z,3.60
2022-10-25T02:24:40.180Z,2.97
2022-10-25T02:27:10.211Z,3.03
2022-10-25T02:29:38.888Z,2.22
2022-10-25T02:32:06.810Z,4.07
2022-10-25T02:34:34.902Z,2.93
2022-10-25T02:37:02.304Z,2.93
2022-10-25T02:39:31.539Z,4.63
2022-10-25T02:42:02.593Z,4.20
2022-10-25T02:44:30.569Z,2.10
2022-10-25T02:46:58.689Z,2.65
2022-10-25T02:49:26.174Z,2.90
2022-10-25T02:51:53.773Z,3.33
2022-10-25T02:54:21.322Z,2.03
2022-10-25T02:56:52.618Z,3.53
2022-10-25T02:59:21.490Z,1.92
2022-10-25T03:01:49.651Z,3.40
2022-10-25T03:04:17.294Z,4.20
2022-10-25T03:06:44.651Z,1.50
2022-10-25T03:09:12.133Z,2.35
2022-10-25T03:11:39.673Z,3.22
2022-10-25T03:14:06.991Z,2.87
2022-10-25T03:16:34.325Z,2.80
2022-10-25T03:19:01.815Z,3.87
2022-10-25T03:21:29.491Z,2.80
2022-10-25T03:23:56.884Z,4.88
2022-10-25T03:26:24.431Z,2.47
2022-10-25T03:28:51.803Z,2.15
2022-10-25T03:31:20.733Z,6.33
2022-10-25T03:33:48.273Z,3.17
2022-10-25T03:36:15.692Z,1.40
2022-10-25T03:38:43.239Z,2.10
2022-10-25T03:41:10.622Z,3.40
2022-10-25T03:43:38.118Z,6.00
2022-10-25T03:46:05.696Z,4.57
2022-10-25T03:48:33.746Z,1.77
2022-10-25T03:51:01.248Z,2.05
2022-10-25T03:53:28.623Z,3.55
2022-10-25T03:55:56.296Z,3.03
2022-10-25T03:58:23.762Z,3.47
2022-10-25T04:00:51.570Z,3.58
2022-10-25T04:03:18.924Z,3.83
2022-10-25T04:05:46.240Z,3.20
2022-10-25T04:08:13.755Z,3.50
2022-10-25T04:10:41.252Z,2.55
2022-10-25T04:13:08.727Z,2.88
2022-10-25T04:15:38.387Z,6.25
2022-10-25T04:18:06.402Z,2.85
2022-10-25T04:20:33.907Z,4.28
2022-10-25T04:23:01.442Z,5.78
2022-10-25T04:25:29.813Z,2.33
2022-10-25T04:27:59.151Z,2.03
2022-10-25T04:30:26.895Z,2.45
2022-10-25T04:32:54.246Z,4.32
2022-10-25T04:35:21.716Z,3.00
2022-10-25T04:37:50.316Z,3.10
2022-10-25T04:40:23.987Z,2.17
2022-10-25T04:42:52.304Z,5.97
2022-10-25T04:45:20.059Z,2.60
2022-10-25T04:47:47.700Z,4.57
2022-10-25T04:50:15.211Z,5.97
2022-10-25T04:52:42.599Z,5.43
2022-10-25T04:55:09.991Z,3.80
2022-10-25T04:57:40.660Z,5.07
2022-10-25T05:00:08.782Z,6.10
2022-10-25T05:02:36.219Z,3.50
2022-10-25T05:05:03.755Z,4.15
2022-10-25T05:07:32.413Z,3.45
2022-10-25T05:10:02.384Z,6.53
2022-10-25T05:12:32.521Z,5.32
2022-10-25T05:21:41.995Z,3.00
2022-10-25T05:24:10.376Z,4.13
2022-10-25T05:26:38.753Z,7.05
2022-10-25T05:29:10.220Z,5.18
2022-10-25T05:34:17.244Z,4.22
2022-10-25T05:36:45.837Z,5.07
2022-10-25T05:39:15.082Z,2.40
2022-10-25T05:41:47.550Z,5.75
2022-10-25T05:44:24.698Z,3.10
2022-10-25T05:46:55.547Z,4.65
2022-10-25T05:49:24.118Z,4.45
2022-10-25T05:51:52.820Z,4.28
2022-10-25T05:54:20.614Z,4.70
2022-10-25T05:56:48.641Z,5.55
2022-10-25T05:59:16.506Z,2.92
2022-10-25T06:01:48.486Z,6.18
2022-10-25T06:04:18.433Z,6.72
2022-10-25T06:06:49.005Z,4.10
2022-10-25T06:09:21.604Z,6.22
2022-10-25T06:11:50.176Z,4.05
2022-10-25T06:14:17.612Z,5.78
2022-10-25T06:16:45.531Z,6.30
2022-10-25T06:19:13.071Z,4.95
2022-10-25T06:21:40.759Z,4.15
2022-10-25T06:24:09.565Z,7.57
2022-10-25T06:26:38.606Z,5.82
2022-10-25T06:29:11.780Z,4.35
2022-10-25T06:34:57.506Z,6.20
2022-10-25T06:37:25.293Z,7.00
2022-10-25T06:39:53.998Z,7.60
2022-10-25T06:42:21.905Z,5.43
2022-10-25T06:44:49.918Z,7.88
2022-10-25T06:47:18.338Z,9.73
2022-10-25T06:49:46.520Z,6.32
2022-10-25T06:52:16.556Z,4.57
2022-10-25T06:54:44.013Z,6.45
2022-10-25T06:57:11.713Z,9.18
2022-10-25T06:59:39.352Z,5.75
2022-10-25T07:02:07.096Z,5.70
2022-10-25T07:04:35.093Z,6.63
2022-10-25T07:07:02.559Z,6.88
2022-10-25T07:09:31.132Z,6.65
2022-10-25T07:11:58.912Z,5.22
2022-10-25T07:14:26.436Z,5.50
2022-10-25T07:16:53.947Z,5.15
2022-10-25T07:19:47.709Z,5.05
2022-10-25T07:22:15.678Z,6.82
2022-10-25T07:24:44.240Z,6.50
2022-10-25T07:27:14.599Z,7.05
2022-10-25T07:30:21.468Z,6.45
2022-10-25T07:36:26.538Z,7.85
2022-10-25T07:38:54.068Z,8.55
2022-10-25T07:41:21.566Z,7.65
2022-10-25T07:43:49.211Z,9.80
2022-10-25T07:46:16.858Z,11.23
2022-10-25T07:48:45.449Z,9.85
2022-10-25T07:51:15.158Z,6.45
2022-10-25T07:53:53.477Z,6.85
2022-10-25T07:56:42.428Z,8.10
2022-10-25T07:59:10.202Z,8.93
2022-10-25T08:01:38.366Z,6.57
2022-10-25T08:04:06.046Z,9.52
2022-10-25T08:06:33.565Z,9.68
2022-10-25T08:09:14.575Z,9.90
2022-10-25T08:11:43.534Z,9.35
2022-10-25T08:14:13.004Z,9.95
2022-10-25T08:16:41.064Z,9.88
2022-10-25T08:19:08.661Z,10.75
2022-10-25T08:21:37.801Z,12.00
2022-10-25T08:24:06.691Z,13.05
2022-10-25T08:26:36.925Z,8.40
2022-10-25T08:29:05.365Z,7.40
2022-10-25T08:31:33.188Z,7.10
2022-10-25T08:36:40.762Z,13.93
2022-10-25T08:39:09.170Z,9.10
2022-10-25T08:42:18.659Z,9.32
2022-10-25T08:44:51.240Z,11.40
2022-10-25T08:47:28.280Z,13.02
2022-10-25T08:50:42.330Z,7.65
2022-10-25T08:53:19.101Z,11.65
2022-10-25T08:56:05.102Z,6.32
2022-10-25T08:58:54.925Z,10.90
2022-10-25T09:01:48.740Z,9.98
2022-10-25T09:04:16.381Z,11.65
2022-10-25T09:06:59.223Z,11.85
2022-10-25T09:10:19.686Z,8.88
2022-10-25T09:13:09.883Z,9.45
2022-10-25T09:16:04.280Z,9.23
2022-10-25T09:18:57.327Z,9.77
2022-10-25T09:21:35.517Z,9.57
2022-10-25T09:24:11.432Z,12.57
2022-10-25T09:26:40.520Z,9.52
2022-10-25T09:29:21.669Z,10.80
2022-10-25T09:31:56.128Z,8.93
2022-10-25T09:34:28.221Z,11.93
2022-10-25T09:37:28.840Z,10.88
2022-10-25T09:40:01.366Z,8.63
2022-10-25T09:42:33.851Z,9.38
2022-10-25T09:45:07.645Z,9.82
2022-10-25T09:47:53.358Z,9.05
2022-10-25T09:50:42.936Z,13.95
2022-10-25T09:53:13.043Z,11.02
2022-10-25T09:55:54.632Z,7.90
2022-10-25T09:58:26.926Z,10.40
2022-10-25T10:01:51.277Z,9.52
2022-10-25T10:04:37.598Z,12.55
2022-10-25T10:07:43.051Z,9.02
2022-10-25T10:10:15.763Z,15.70
2022-10-25T10:13:16.566Z,9.80
2022-10-25T10:16:01.934Z,8.65
2022-10-25T10:18:35.358Z,7.55
2022-10-25T10:21:14.484Z,11.52
2022-10-25T10:23:50.231Z,9.82
2022-10-25T10:26:21.179Z,8.90
2022-10-25T10:28:51.261Z,8.38
2022-10-25T10:31:20.713Z,8.98
2022-10-25T10:37:34.642Z,9.93
2022-10-25T10:40:09.666Z,14.93
2022-10-25T10:42:49.147Z,8.65
2022-10-25T10:45:19.666Z,11.48
2022-10-25T10:47:52.238Z,12.57
2022-10-25T10:50:23.634Z,10.10
2022-10-25T10:53:03.380Z,9.07
2022-10-25T10:55:38.810Z,12.52
2022-10-25T10:58:34.513Z,10.80
2022-10-25T11:01:04.098Z,9.15
2022-10-25T11:03:53.977Z,11.38
2022-10-25T11:06:38.876Z,7.60
2022-10-25T11:09:33.246Z,12.70
2022-10-25T11:12:15.054Z,6.93
2022-10-25T11:14:46.421Z,10.48
2022-10-25T11:17:21.428Z,10.38
2022-10-25T11:20:11.443Z,9.13
2022-10-25T11:22:51.228Z,11.95
2022-10-25T11:25:30.740Z,11.10
2022-10-25T11:28:09.518Z,12.40
2022-10-25T11:30:50.697Z,10.52
2022-10-25T11:33:32.372Z,12.82
2022-10-25T11:36:00.166Z,10.35
2022-10-25T11:38:39.459Z,7.95
2022-10-25T11:41:33.019Z,10.30
2022-10-25T11:44:24.763Z,13.20
2022-10-25T11:47:20.860Z,10.75
2022-10-25T11:50:07.314Z,9.88
2022-10-25T11:52:44.012Z,9.30
2022-10-25T11:55:45.544Z,10.90
2022-10-25T11:58:47.989Z,9.55
2022-10-25T12:01:50.666Z,9.55
2022-10-25T12:04:37.078Z,9.88
2022-10-25T12:07:21.544Z,11.48
2022-10-25T12:10:26.596Z,8.07
2022-10-25T12:13:02.679Z,8.02
2022-10-25T12:15:41.033Z,7.40
2022-10-25T12:18:50.286Z,6.72
2022-10-25T12:21:24.392Z,7.50
2022-10-25T12:23:54.643Z,7.47
2022-10-25T12:26:30.187Z,11.38
2022-10-25T12:29:01.018Z,11.45
2022-10-25T12:31:42.757Z,10.00
2022-10-25T12:34:19.852Z,10.15
2022-10-25T12:36:49.747Z,9.20
2022-10-25T12:39:22.772Z,10.02
2022-10-25T12:41:56.252Z,11.65
2022-10-25T12:44:40.209Z,19.33
2022-10-25T12:47:19.908Z,12.82
2022-10-25T12:50:08.621Z,9.77
2022-10-25T12:52:38.053Z,10.65
2022-10-25T12:55:22.820Z,8.88
2022-10-25T12:58:27.700Z,8.20
2022-10-25T13:01:13.338Z,13.18
2022-10-25T13:04:11.577Z,8.10
2022-10-25T13:06:46.931Z,9.75
2022-10-25T13:09:20.993Z,9.40
2022-10-25T13:12:04.654Z,11.82
2022-10-25T13:14:51.054Z,9.52
2022-10-25T13:17:18.531Z,9.60
2022-10-25T13:19:54.489Z,9.75
2022-10-25T13:22:37.687Z,9.27
2022-10-25T13:25:09.143Z,12.02
2022-10-25T13:27:37.003Z,9.77
2022-10-25T13:30:24.930Z,8.02
2022-10-25T13:33:26.161Z,11.95
2022-10-25T13:35:53.619Z,10.35
2022-10-25T13:38:27.656Z,14.05
2022-10-25T13:41:16.284Z,8.88
2022-10-25T13:44:04.302Z,11.05
2022-10-25T13:46:43.553Z,13.88
2022-10-25T13:49:32.971Z,9.73
2022-10-25T13:52:21.840Z,7.35
2022-10-25T13:54:55.917Z,8.93
2022-10-25T13:57:45.284Z,11.75
2022-10-25T14:00:28.642Z,8.32
2022-10-25T14:03:02.773Z,11.48
2022-10-25T14:05:55.245Z,7.93
2022-10-25T14:08:46.648Z,6.30
2022-10-25T14:11:35.639Z,7.70
2022-10-25T14:14:12.240Z,11.23
2022-10-25T14:16:53.505Z,8.07
2022-10-25T14:19:27.502Z,14.05
2022-10-25T14:21:56.426Z,6.25
2022-10-25T14:24:24.236Z,9.70
2022-10-25T14:27:00.664Z,7.28
2022-10-25T14:29:29.747Z,6.55
2022-10-25T14:31:57.517Z,6.25
2022-10-25T14:34:27.657Z,6.32
2022-10-25T14:36:58.249Z,7.78
2022-10-25T14:39:31.254Z,6.13
2022-10-25T14:42:01.371Z,10.25
2022-10-25T14:44:31.449Z,6.97
2022-10-25T14:47:00.343Z,8.45
2022-10-25T14:49:28.109Z,4.50
2022-10-25T14:52:03.480Z,6.78
2022-10-25T14:54:36.189Z,8.95
2022-10-25T14:57:08.713Z,9.60
2022-10-25T14:59:54.412Z,5.38
2022-10-25T15:02:28.791Z,6.43
2022-10-25T15:05:01.421Z,6.10
2022-10-25T15:07:41.633Z,5.32
2022-10-25T15:10:30.889Z,7.45
2022-10-25T15:13:12.453Z,6.97
2022-10-25T15:15:45.793Z,6.20
2022-10-25T15:18:36.209Z,10.05
2022-10-25T15:21:14.093Z,6.57
2022-10-25T15:23:43.343Z,6.38
2022-10-25T15:26:29.660Z,4.85
2022-10-25T15:29:00.013Z,6.28
2022-10-25T15:31:30.082Z,4.72
2022-10-25T15:33:59.893Z,4.57
2022-10-25T15:36:29.889Z,4.05
2022-10-25T15:39:26.843Z,8.02
2022-10-25T15:41:54.592Z,6.68
2022-10-25T15:44:26.161Z,6.80
2022-10-25T15:46:53.624Z,7.07
2022-10-25T15:49:21.250Z,5.05
2022-10-25T15:51:49.170Z,6.88
2022-10-25T15:54:22.386Z,10.48
2022-10-25T15:56:51.506Z,10.45
2022-10-25T15:59:19.112Z,8.40
2022-10-25T16:01:52.171Z,8.95
2022-10-25T16:04:20.425Z,7.47
2022-10-25T16:06:48.600Z,7.03
2022-10-25T16:09:16.090Z,10.13
2022-10-25T16:11:47.331Z,7.78
2022-10-25T16:14:24.151Z,7.07
2022-10-25T16:16:52.214Z,10.38
2022-10-25T16:19:21.665Z,8.05
2022-10-25T16:21:49.149Z,8.20
2022-10-25T16:24:16.624Z,10.77
2022-10-25T16:26:49.061Z,11.18
2022-10-25T16:29:21.727Z,8.70
2022-10-25T16:31:49.441Z,7.45
2022-10-25T16:34:17.566Z,7.97
2022-10-25T16:36:46.026Z,6.70
2022-10-25T16:39:13.915Z,8.60
2022-10-25T16:41:44.507Z,9.38
2022-10-25T16:44:13.449Z,8.00
2022-10-25T16:46:41.046Z,7.85
2022-10-25T16:49:11.812Z,8.05
2022-10-25T16:51:40.308Z,6.50
2022-10-25T16:54:08.464Z,6.68
2022-10-25T16:56:36.260Z,7.25
2022-10-25T16:59:04.108Z,11.32
2022-10-25T17:01:34.598Z,8.85
2022-10-25T17:04:04.451Z,13.07
2022-10-25T17:06:47.743Z,10.38
2022-10-25T17:09:16.604Z,6.60
2022-10-25T17:11:44.736Z,10.85
2022-10-25T17:14:13.951Z,6.45
2022-10-25T17:16:43.807Z,6.85
2022-10-25T17:19:12.256Z,6.88
2022-10-25T17:21:40.419Z,7.05
2022-10-25T17:24:09.699Z,5.70
2022-10-25T17:26:38.287Z,4.43
2022-10-25T17:29:05.907Z,5.50
2022-10-25T17:31:33.502Z,7.85
2022-10-25T17:34:01.437Z,7.97
2022-10-25T17:36:31.915Z,6.50
2022-10-25T17:39:00.550Z,8.70
2022-10-25T17:41:28.186Z,7.60
2022-10-25T17:43:56.858Z,7.05
2022-10-25T17:46:27.836Z,8.63
2022-10-25T17:48:56.782Z,7.53
2022-10-25T17:51:24.818Z,6.63
2022-10-25T17:53:54.477Z,4.93
2022-10-25T17:56:23.629Z,8.68
2022-10-25T17:58:51.833Z,8.50
2022-10-25T18:01:22.815Z,6.68
2022-10-25T18:03:50.872Z,7.53
2022-10-25T18:06:20.068Z,7.35
2022-10-25T18:08:59.225Z,10.02
2022-10-25T18:11:28.572Z,7.20
2022-10-25T18:13:58.645Z,6.32
2022-10-25T18:16:27.739Z,8.25
2022-10-25T18:19:01.092Z,7.00
2022-10-25T18:21:29.215Z,7.85
2022-10-25T18:23:58.861Z,9.02
2022-10-25T18:26:27.288Z,6.32
2022-10-25T18:28:55.197Z,6.50
2022-10-25T18:31:22.858Z,8.57
2022-10-25T18:33:50.668Z,6.85
2022-10-25T18:36:19.907Z,6.85
2022-10-25T18:38:51.259Z,8.52
2022-10-25T18:41:22.494Z,8.38
2022-10-25T18:43:50.826Z,10.52
2022-10-25T18:46:18.838Z,6.80
2022-10-25T18:48:56.979Z,8.93
2022-10-25T18:51:27.009Z,9.48
2022-10-25T18:53:55.822Z,7.97
2022-10-25T18:56:23.906Z,7.47
2022-10-25T18:58:51.346Z,8.65
2022-10-25T19:01:22.703Z,7.10
2022-10-25T19:03:50.921Z,10.25
2022-10-25T19:06:19.212Z,7.40
2022-10-25T19:08:46.883Z,7.97
2022-10-25T19:11:16.476Z,8.25
2022-10-25T19:13:47.493Z,6.70
2022-10-25T19:16:18.076Z,8.05
2022-10-25T19:18:45.541Z,11.63
2022-10-25T19:21:14.290Z,11.00
2022-10-25T19:23:45.142Z,11.88
2022-10-25T19:26:19.749Z,11.88
2022-10-25T19:28:47.559Z,9.50
2022-10-25T19:31:17.423Z,7.80
2022-10-25T19:33:46.552Z,7.00
2022-10-25T19:36:14.833Z,8.23
2022-10-25T19:38:42.417Z,10.30
2022-10-25T19:41:16.801Z,7.28
2022-10-25T19:43:44.477Z,9.77
2022-10-25T19:46:13.417Z,9.60
2022-10-25T19:48:41.169Z,9.75
2022-10-25T19:51:18.143Z,14.00
2022-10-25T19:53:46.602Z,21.17
2022-10-25T19:56:20.134Z,8.00
2022-10-25T19:58:48.478Z,10.60
2022-10-25T20:01:19.864Z,8.82
2022-10-25T20:03:50.171Z,9.07
2022-10-25T20:06:24.387Z,8.57
2022-10-25T20:08:53.662Z,9.65
2022-10-25T20:11:22.257Z,10.15
2022-10-25T20:13:56.935Z,14.98
2022-10-25T20:16:25.756Z,18.55
2022-10-25T20:18:53.575Z,12.20
2022-10-25T20:21:24.510Z,9.00
2022-10-25T20:24:10.852Z,11.75
2022-10-25T20:26:41.339Z,48.22
2022-10-25T20:29:18.619Z,26.08
2022-10-25T20:31:49.980Z,20.52
2022-10-25T20:34:18.483Z,10.35
2022-10-25T20:36:47.101Z,25.77
2022-10-25T20:39:15.101Z,19.00
2022-10-25T20:41:42.981Z,27.52
2022-10-25T20:44:11.368Z,9.80
2022-10-25T20:46:38.722Z,31.73
2022-10-25T20:49:07.619Z,27.08
2022-10-25T20:51:35.472Z,60.47
2022-10-25T20:54:09.961Z,46.05
2022-10-25T20:56:39.736Z,136.98
2022-10-25T20:59:08.007Z,45.75
2022-10-25T21:01:36.499Z,203.00
2022-10-25T21:04:04.576Z,11.18
2022-10-25T21:06:32.189Z,8.77
2022-10-25T21:08:59.740Z,19.73
2022-10-25T21:11:29.361Z,16.27
2022-10-25T21:13:57.984Z,21.33
2022-10-25T21:16:25.619Z,19.52
2022-10-25T21:18:53.245Z,16.25
2022-10-25T21:21:21.035Z,19.63
2022-10-25T21:23:49.456Z,23.20
2022-10-25T21:26:17.078Z,15.38
2022-10-25T21:28:44.599Z,31.80
2022-10-25T21:31:14.419Z,25.33
2022-10-25T21:33:50.251Z,13.77
2022-10-25T21:36:20.305Z,25.42
2022-10-25T21:38:48.000Z,6.78
2022-10-25T21:41:23.599Z,13.00
2022-10-25T21:43:51.548Z,12.45
2022-10-25T21:46:20.878Z,10.73
2022-10-25T21:48:50.828Z,7.38
2022-10-25T21:51:20.522Z,8.70
2022-10-25T21:53:48.619Z,5.97
2022-10-25T21:56:18.496Z,8.32
2022-10-25T21:58:49.210Z,10.65
2022-10-25T22:01:22.100Z,17.67
2022-10-25T22:03:49.817Z,15.60
2022-10-25T22:06:20.006Z,12.90
2022-10-25T22:08:48.377Z,21.05
2022-10-25T22:11:21.701Z,29.08
2022-10-25T22:13:54.290Z,31.95
2022-10-25T22:16:22.390Z,106.53
2022-10-25T22:19:03.169Z,112.93
2022-10-25T22:21:33.528Z,385.63
2022-10-25T22:24:01.193Z,203.90
2022-10-25T22:26:29.873Z,221.75
2022-10-25T22:28:59.377Z,509.77
2022-10-25T22:31:28.665Z,310.55
2022-10-25T22:34:07.477Z,432.98
2022-10-25T22:36:37.584Z,443.83
2022-10-25T22:39:06.092Z,458.75
2022-10-25T22:41:33.622Z,564.42
2022-10-25T22:44:01.599Z,392.95
2022-10-25T22:46:31.531Z,243.68
2022-10-25T22:49:00.394Z,301.52
2022-10-25T22:51:28.927Z,502.27
2022-10-25T22:53:56.532Z,311.25
2022-10-25T22:56:29.173Z,471.38
2022-10-25T22:59:02.135Z,427.38
2022-10-25T23:01:32.814Z,405.08
2022-10-25T23:04:01.702Z,379.42
2022-10-25T23:06:31.781Z,256.35
2022-10-25T23:09:01.509Z,355.70
2022-10-25T23:11:31.315Z,254.90
2022-10-25T23:13:59.812Z,243.00
2022-10-25T23:16:28.591Z,146.90
2022-10-25T23:18:56.884Z,215.73
2022-10-25T23:21:27.287Z,345.25
2022-10-25T23:23:56.692Z,286.48
2022-10-25T23:26:30.189Z,427.65
2022-10-25T23:29:03.103Z,332.23
2022-10-25T23:31:31.762Z,338.40
2022-10-25T23:34:00.832Z,321.13
2022-10-25T23:36:30.762Z,313.83
2022-10-25T23:39:04.186Z,307.05
2022-10-25T23:41:31.783Z,275.23
2022-10-25T23:43:59.415Z,311.13
2022-10-25T23:46:26.940Z,291.98
2022-10-25T23:48:54.391Z,325.75
2022-10-25T23:51:22.073Z,330.75
2022-10-25T23:53:49.961Z,390.75
2022-10-25T23:56:17.684Z,355.42
2022-10-25T23:58:45.275Z,284.58
